Time;durP1;ratioP1;P1;durP2;ratioP2;P2;SDS_P1;SDS_P2;PMS_P1;PMS_P2;Temp;Humidity;BMP_temperature;BMP_pressure;BME280_temperature;BME280_humidity;BME280_pressure;Samples;Min_cycle;Max_cycle;Signal;HPM_P1;HPM_P2
2023/04/24 00:02:06;;;;;;;9.63;4.03;;;;;;;;;;5053798;28;20202;-37
2023/04/24 00:04:35;;;;;;;8.38;3.28;;;;;;;;;;5054140;28;20189;-37
2023/04/24 00:07:02;;;;;;;4.75;2.58;;;;;;;;;;5054048;28;20306;-37
2023/04/24 00:09:29;;;;;;;3.38;1.95;;;;;;;;;;5053860;28;20230;-37
2023/04/24 00:11:57;;;;;;;4.90;2.30;;;;;;;;;;5069595;28;20211;-37
2023/04/24 00:14:24;;;;;;;3.10;1.95;;;;;;;;;;5056345;28;20195;-36
2023/04/24 00:16:51;;;;;;;14.63;6.43;;;;;;;;;;5073895;28;20203;-36
2023/04/24 00:19:21;;;;;;;49.42;17.35;;;;;;;;;;5073454;28;20577;-39
2023/04/24 00:21:49;;;;;;;49.97;16.55;;;;;;;;;;5074007;28;20292;-37
2023/04/24 00:24:18;;;;;;;30.45;10.85;;;;;;;;;;5073463;28;20210;-37
2023/04/24 00:26:45;;;;;;;19.27;6.43;;;;;;;;;;5056107;28;20206;-37
2023/04/24 00:29:12;;;;;;;16.73;5.30;;;;;;;;;;5055603;28;20211;-37
2023/04/24 00:31:39;;;;;;;12.05;5.03;;;;;;;;;;5073819;28;20196;-37
2023/04/24 00:34:07;;;;;;;7.28;3.63;;;;;;;;;;5073440;28;20660;-36
2023/04/24 00:36:34;;;;;;;4.63;2.95;;;;;;;;;;5072514;28;20206;-37
2023/04/24 00:39:02;;;;;;;6.45;2.50;;;;;;;;;;5073792;28;20229;-37
2023/04/24 00:41:29;;;;;;;4.10;2.60;;;;;;;;;;5055811;28;20302;-36
2023/04/24 00:43:57;;;;;;;5.05;3.00;;;;;;;;;;5055972;28;20530;-37
2023/04/24 00:46:24;;;;;;;7.60;4.70;;;;;;;;;;5073602;28;20233;-36
2023/04/24 00:48:51;;;;;;;10.45;5.45;;;;;;;;;;5055500;28;20227;-36
2023/04/24 00:51:18;;;;;;;32.67;14.23;;;;;;;;;;5073139;28;20608;-38
2023/04/24 00:53:46;;;;;;;19.73;6.68;;;;;;;;;;5073643;28;20200;-36
2023/04/24 00:56:13;;;;;;;8.27;3.20;;;;;;;;;;5073448;28;20235;-37
2023/04/24 00:58:41;;;;;;;5.10;1.80;;;;;;;;;;5073138;28;20202;-37
2023/04/24 01:01:09;;;;;;;4.35;2.10;;;;;;;;;;5038953;28;20209;-37
2023/04/24 01:03:37;;;;;;;2.63;1.85;;;;;;;;;;5073094;28;20199;-37
2023/04/24 01:06:05;;;;;;;5.57;2.75;;;;;;;;;;5055069;28;20211;-37
2023/04/24 01:08:33;;;;;;;2.20;1.42;;;;;;;;;;5055438;28;20200;-37
2023/04/24 01:11:00;;;;;;;4.25;2.45;;;;;;;;;;5055561;28;20227;-36
2023/04/24 01:13:28;;;;;;;3.22;2.30;;;;;;;;;;5039179;28;20204;-36
2023/04/24 01:15:55;;;;;;;4.15;2.92;;;;;;;;;;5073320;28;20199;-36
2023/04/24 01:18:22;;;;;;;8.93;4.38;;;;;;;;;;5073205;28;20207;-37
2023/04/24 01:20:53;;;;;;;3.53;2.25;;;;;;;;;;5054885;28;20239;-36
2023/04/24 01:23:20;;;;;;;9.73;3.60;;;;;;;;;;5055120;28;20191;-36
2023/04/24 01:25:49;;;;;;;5.43;2.38;;;;;;;;;;5039043;28;20199;-37
2023/04/24 01:28:17;;;;;;;5.97;3.03;;;;;;;;;;5073209;28;20215;-36
2023/04/24 01:30:44;;;;;;;4.13;2.53;;;;;;;;;;5072846;28;20592;-36
2023/04/24 01:33:11;;;;;;;4.93;2.53;;;;;;;;;;5055366;28;20210;-37
2023/04/24 01:35:38;;;;;;;3.30;2.10;;;;;;;;;;5055284;28;20203;-37
2023/04/24 01:38:06;;;;;;;3.60;2.25;;;;;;;;;;5055458;28;20195;-37
2023/04/24 01:40:33;;;;;;;5.35;2.40;;;;;;;;;;5073044;28;20203;-37
2023/04/24 01:43:00;;;;;;;3.10;1.95;;;;;;;;;;5055442;28;20196;-36
2023/04/24 01:45:29;;;;;;;2.25;1.88;;;;;;;;;;5055579;28;20273;-36
2023/04/24 01:47:56;;;;;;;5.28;2.05;;;;;;;;;;5074049;28;20253;-36
2023/04/24 01:50:24;;;;;;;4.55;2.00;;;;;;;;;;5058882;28;20226;-37
2023/04/24 01:52:51;;;;;;;2.95;1.70;;;;;;;;;;5058864;28;20203;-37
2023/04/24 01:55:18;;;;;;;3.25;1.80;;;;;;;;;;5076622;28;20203;-37
2023/04/24 01:57:45;;;;;;;3.70;2.20;;;;;;;;;;5076174;28;20211;-36
2023/04/24 02:00:14;;;;;;;2.35;2.00;;;;;;;;;;5076399;28;20208;-36
2023/04/24 02:02:41;;;;;;;2.47;1.98;;;;;;;;;;5076051;28;20652;-36
2023/04/24 02:05:13;;;;;;;3.42;1.83;;;;;;;;;;5076428;28;20211;-36
2023/04/24 02:07:40;;;;;;;2.80;1.90;;;;;;;;;;5076343;28;20202;-36
2023/04/24 02:10:09;;;;;;;2.50;1.75;;;;;;;;;;5075877;28;20608;-36
2023/04/24 02:12:36;;;;;;;5.45;1.92;;;;;;;;;;5076210;28;20203;-36
2023/04/24 02:15:04;;;;;;;2.25;1.58;;;;;;;;;;5058370;28;20233;-36
2023/04/24 02:17:31;;;;;;;4.72;1.80;;;;;;;;;;5075791;28;20282;-36
2023/04/24 02:19:58;;;;;;;3.53;1.98;;;;;;;;;;5058425;28;20211;-37
2023/04/24 02:22:26;;;;;;;4.20;2.08;;;;;;;;;;5075686;28;20199;-37
2023/04/24 02:24:53;;;;;;;2.47;1.95;;;;;;;;;;5076023;28;20195;-37
2023/04/24 02:27:20;;;;;;;3.28;2.10;;;;;;;;;;5041448;28;20199;-37
2023/04/24 02:29:47;;;;;;;3.03;1.95;;;;;;;;;;5075790;28;20233;-37
2023/04/24 02:32:15;;;;;;;4.78;2.50;;;;;;;;;;5075407;28;20214;-36
2023/04/24 02:34:43;;;;;;;3.67;2.20;;;;;;;;;;5075787;28;20203;-37
2023/04/24 02:37:12;;;;;;;2.10;1.73;;;;;;;;;;5057987;28;20203;-37
2023/04/24 02:39:39;;;;;;;2.75;1.77;;;;;;;;;;5075168;28;20285;-36
2023/04/24 02:42:07;;;;;;;2.67;1.92;;;;;;;;;;5057511;28;20195;-36
2023/04/24 02:44:34;;;;;;;2.45;1.90;;;;;;;;;;5057381;28;20234;-36
2023/04/24 02:47:02;;;;;;;4.15;2.10;;;;;;;;;;5075305;28;20206;-37
2023/04/24 02:49:30;;;;;;;2.97;2.13;;;;;;;;;;5057062;28;20227;-37
2023/04/24 02:51:57;;;;;;;3.45;2.13;;;;;;;;;;5057456;28;20212;-36
2023/04/24 02:54:24;;;;;;;5.05;2.40;;;;;;;;;;5057393;28;20217;-36
2023/04/24 02:56:52;;;;;;;4.22;2.35;;;;;;;;;;5057172;28;20217;-37
2023/04/24 02:59:19;;;;;;;3.08;2.10;;;;;;;;;;5056466;28;20226;-37
2023/04/24 03:01:46;;;;;;;3.65;2.47;;;;;;;;;;5057097;28;20256;-37
2023/04/24 03:04:13;;;;;;;3.40;2.10;;;;;;;;;;5040772;28;20199;-36
2023/04/24 03:06:41;;;;;;;3.00;2.17;;;;;;;;;;5074605;28;20249;-36
2023/04/24 03:09:08;;;;;;;5.13;2.60;;;;;;;;;;5074759;28;20200;-37
2023/04/24 03:11:35;;;;;;;3.72;2.30;;;;;;;;;;5056668;28;20203;-37
2023/04/24 03:14:02;;;;;;;2.88;2.00;;;;;;;;;;5057021;28;20195;-37
2023/04/24 03:16:30;;;;;;;3.40;1.98;;;;;;;;;;5056704;28;20210;-36
2023/04/24 03:18:57;;;;;;;4.03;2.40;;;;;;;;;;5074274;28;20582;-37
2023/04/24 03:21:28;;;;;;;3.85;2.45;;;;;;;;;;5056518;28;20239;-37
2023/04/24 03:23:55;;;;;;;3.42;2.13;;;;;;;;;;5053535;28;20199;-37
2023/04/24 03:26:23;;;;;;;3.30;2.33;;;;;;;;;;5071102;28;21656;-37
2023/04/24 03:29:01;;;;;;;2.45;2.03;;;;;;;;;;5072788;28;20197;-37
2023/04/24 03:31:29;;;;;;;4.38;2.05;;;;;;;;;;5074527;28;20227;-37
2023/04/24 03:33:57;;;;;;;2.78;2.08;;;;;;;;;;5057643;28;20245;-38
2023/04/24 03:36:25;;;;;;;5.25;2.60;;;;;;;;;;5065127;28;20207;-37
2023/04/24 03:38:54;;;;;;;3.15;2.30;;;;;;;;;;5065214;28;20209;-37
2023/04/24 03:41:28;;;;;;;3.08;1.88;;;;;;;;;;5047906;28;20273;-37
2023/04/24 03:44:09;;;;;;;5.88;2.47;;;;;;;;;;5066756;28;20660;-38
2023/04/24 03:46:37;;;;;;;4.20;2.47;;;;;;;;;;5030819;28;20212;-37
2023/04/24 03:49:06;;;;;;;4.75;1.98;;;;;;;;;;5047274;28;20653;-36
2023/04/24 03:51:37;;;;;;;3.83;2.38;;;;;;;;;;5020514;28;20219;-36
2023/04/24 03:54:13;;;;;;;2.58;2.13;;;;;;;;;;5036643;28;20517;-37
2023/04/24 03:56:41;;;;;;;3.28;2.10;;;;;;;;;;5036591;28;20204;-36
2023/04/24 03:59:08;;;;;;;4.13;2.40;;;;;;;;;;5034955;28;20935;-39
2023/04/24 04:01:37;;;;;;;3.08;2.10;;;;;;;;;;5046728;28;20231;-36
2023/04/24 04:04:12;;;;;;;3.08;2.20;;;;;;;;;;5044440;28;20707;-38
2023/04/24 04:06:40;;;;;;;3.33;2.00;;;;;;;;;;5057637;28;20584;-36
2023/04/24 04:09:08;;;;;;;3.75;2.20;;;;;;;;;;5045390;28;20266;-37
2023/04/24 04:11:36;;;;;;;4.25;2.33;;;;;;;;;;5059920;28;20277;-37
2023/04/24 04:14:03;;;;;;;4.07;2.10;;;;;;;;;;5067171;28;20218;-37
2023/04/24 04:16:32;;;;;;;2.88;2.00;;;;;;;;;;5075392;28;20718;-37
2023/04/24 04:19:02;;;;;;;3.75;2.47;;;;;;;;;;5075330;28;20256;-37
2023/04/24 04:21:31;;;;;;;2.67;2.13;;;;;;;;;;5075113;28;20759;-36
2023/04/24 04:24:26;;;;;;;3.92;2.25;;;;;;;;;;5075110;28;20233;-37
2023/04/24 04:26:56;;;;;;;4.53;2.35;;;;;;;;;;5055740;28;20223;-36
2023/04/24 04:29:34;;;;;;;3.72;2.30;;;;;;;;;;5036655;28;20715;-36
2023/04/24 04:32:05;;;;;;;3.80;2.17;;;;;;;;;;5035010;28;20229;-41
2023/04/24 04:34:33;;;;;;;3.67;2.53;;;;;;;;;;5034837;28;20636;-39
2023/04/24 04:37:01;;;;;;;3.00;2.20;;;;;;;;;;5041742;28;20229;-37
2023/04/24 04:39:41;;;;;;;3.45;2.47;;;;;;;;;;5054937;28;20237;-38
2023/04/24 04:42:15;;;;;;;2.78;2.10;;;;;;;;;;5040820;28;20227;-38
2023/04/24 04:44:44;;;;;;;4.35;2.50;;;;;;;;;;5034405;28;20274;-37
2023/04/24 04:47:17;;;;;;;3.38;2.30;;;;;;;;;;5035124;28;20227;-37
2023/04/24 04:49:45;;;;;;;5.28;2.40;;;;;;;;;;5037080;28;20217;-38
2023/04/24 04:52:19;;;;;;;3.85;2.20;;;;;;;;;;5060510;28;20589;-37
2023/04/24 04:54:50;;;;;;;4.85;2.30;;;;;;;;;;5060061;28;20203;-37
2023/04/24 04:57:18;;;;;;;3.17;2.28;;;;;;;;;;5059302;28;20194;-37
2023/04/24 04:59:46;;;;;;;3.92;2.40;;;;;;;;;;5062817;28;20600;-38
2023/04/24 05:02:22;;;;;;;4.15;2.65;;;;;;;;;;5061773;28;20187;-37
2023/04/24 05:04:49;;;;;;;3.13;2.20;;;;;;;;;;5062976;28;20615;-38
2023/04/24 05:07:18;;;;;;;3.38;2.20;;;;;;;;;;5060766;28;20284;-37
2023/04/24 05:09:49;;;;;;;2.55;1.95;;;;;;;;;;5063131;28;20278;-37
2023/04/24 05:12:19;;;;;;;3.33;2.33;;;;;;;;;;5061751;28;20184;-37
2023/04/24 05:14:51;;;;;;;3.88;2.80;;;;;;;;;;5060707;28;20191;-38
2023/04/24 05:17:18;;;;;;;3.60;2.47;;;;;;;;;;5063989;28;20215;-38
2023/04/24 05:19:46;;;;;;;2.63;1.88;;;;;;;;;;5056344;28;20227;-36
2023/04/24 05:22:15;;;;;;;4.38;2.40;;;;;;;;;;5039299;28;20288;-36
2023/04/24 05:24:48;;;;;;;3.85;2.15;;;;;;;;;;5069409;28;20191;-37
2023/04/24 05:27:36;;;;;;;4.47;2.42;;;;;;;;;;5073775;28;20220;-36
2023/04/24 05:30:09;;;;;;;5.18;2.42;;;;;;;;;;5071408;28;20222;-36
2023/04/24 05:32:37;;;;;;;3.50;2.17;;;;;;;;;;5097182;28;20191;-36
2023/04/24 05:35:04;;;;;;;4.15;2.22;;;;;;;;;;5079139;28;20240;-36
2023/04/24 05:37:32;;;;;;;3.60;2.10;;;;;;;;;;5079098;28;20206;-37
2023/04/24 05:39:59;;;;;;;3.97;2.53;;;;;;;;;;5078911;28;20201;-36
2023/04/24 05:42:26;;;;;;;4.35;2.50;;;;;;;;;;5078891;28;20198;-36
2023/04/24 05:44:54;;;;;;;3.83;2.50;;;;;;;;;;5096726;28;20204;-37
2023/04/24 05:47:25;;;;;;;3.28;2.47;;;;;;;;;;5097006;28;20187;-36
2023/04/24 05:49:53;;;;;;;2.30;2.08;;;;;;;;;;5078785;28;20195;-37
2023/04/24 05:52:21;;;;;;;3.45;2.20;;;;;;;;;;5096505;28;20207;-36
2023/04/24 05:54:49;;;;;;;5.38;2.47;;;;;;;;;;5078890;28;20194;-36
2023/04/24 05:57:21;;;;;;;4.57;2.38;;;;;;;;;;5078877;28;20648;-36
2023/04/24 06:00:01;;;;;;;3.20;2.50;;;;;;;;;;5078595;28;20593;-36
2023/04/24 06:02:32;;;;;;;3.53;2.45;;;;;;;;;;5084129;28;20279;-37
2023/04/24 06:04:59;;;;;;;3.65;2.67;;;;;;;;;;5075268;28;20237;-37
2023/04/24 06:07:27;;;;;;;4.45;2.80;;;;;;;;;;5076406;28;20192;-36
2023/04/24 06:09:55;;;;;;;3.08;2.30;;;;;;;;;;5058426;28;20718;-36
2023/04/24 06:12:22;;;;;;;3.60;2.08;;;;;;;;;;5074711;28;20368;-36
2023/04/24 06:15:05;;;;;;;2.97;2.13;;;;;;;;;;5074822;28;20633;-36
2023/04/24 06:17:48;;;;;;;3.13;2.15;;;;;;;;;;5075004;28;20183;-36
2023/04/24 06:20:17;;;;;;;3.22;2.00;;;;;;;;;;5077124;28;20191;-37
2023/04/24 06:22:45;;;;;;;3.88;2.15;;;;;;;;;;5077717;28;20199;-36
2023/04/24 06:25:12;;;;;;;3.10;1.95;;;;;;;;;;5095937;28;20206;-37
2023/04/24 06:27:39;;;;;;;2.72;2.10;;;;;;;;;;5095991;28;20202;-36
2023/04/24 06:30:08;;;;;;;3.40;2.38;;;;;;;;;;5096044;28;20198;-37
2023/04/24 06:32:35;;;;;;;3.83;2.20;;;;;;;;;;5096239;28;20209;-36
2023/04/24 06:35:02;;;;;;;3.70;2.17;;;;;;;;;;5094399;28;20285;-37
2023/04/24 06:37:29;;;;;;;3.53;2.33;;;;;;;;;;5095708;28;20563;-36
2023/04/24 06:39:56;;;;;;;3.63;2.55;;;;;;;;;;5078159;28;20215;-36
2023/04/24 06:42:24;;;;;;;4.30;2.45;;;;;;;;;;5095910;28;20211;-36
2023/04/24 06:44:51;;;;;;;3.33;2.20;;;;;;;;;;5077539;28;20206;-36
2023/04/24 06:47:19;;;;;;;2.80;2.22;;;;;;;;;;5078032;28;20260;-37
2023/04/24 06:49:46;;;;;;;2.97;1.92;;;;;;;;;;5077690;28;20202;-36
2023/04/24 06:52:13;;;;;;;3.42;2.20;;;;;;;;;;5077936;28;20218;-36
2023/04/24 06:54:41;;;;;;;2.88;1.90;;;;;;;;;;5095579;28;20198;-36
2023/04/24 06:57:08;;;;;;;4.65;2.55;;;;;;;;;;5095688;28;20214;-37
2023/04/24 06:59:35;;;;;;;2.97;2.00;;;;;;;;;;5095276;28;20674;-36
2023/04/24 07:02:03;;;;;;;4.15;2.47;;;;;;;;;;5095371;28;20202;-36
2023/04/24 07:04:30;;;;;;;4.07;2.25;;;;;;;;;;5095514;28;20206;-36
2023/04/24 07:06:58;;;;;;;4.15;2.47;;;;;;;;;;5095404;28;20217;-36
2023/04/24 07:09:25;;;;;;;3.33;2.13;;;;;;;;;;5095376;28;20207;-36
2023/04/24 07:11:53;;;;;;;3.65;2.08;;;;;;;;;;5095234;28;20230;-37
2023/04/24 07:14:20;;;;;;;3.67;2.25;;;;;;;;;;5094961;28;20209;-36
2023/04/24 07:16:48;;;;;;;3.47;2.17;;;;;;;;;;5094854;28;20195;-36
2023/04/24 07:19:15;;;;;;;2.90;2.00;;;;;;;;;;5095290;28;20219;-36
2023/04/24 07:21:42;;;;;;;3.35;2.05;;;;;;;;;;5094919;28;20234;-36
2023/04/24 07:24:10;;;;;;;3.28;2.50;;;;;;;;;;5095248;28;20207;-38
2023/04/24 07:26:39;;;;;;;3.58;2.40;;;;;;;;;;5094680;28;20664;-37
2023/04/24 07:29:06;;;;;;;2.70;1.92;;;;;;;;;;5076970;28;20199;-36
2023/04/24 07:31:34;;;;;;;3.35;1.92;;;;;;;;;;5094865;28;20229;-36
2023/04/24 07:34:01;;;;;;;2.05;1.77;;;;;;;;;;5094560;28;20195;-37
2023/04/24 07:36:28;;;;;;;3.60;2.10;;;;;;;;;;5076839;28;20204;-36
2023/04/24 07:38:56;;;;;;;2.17;1.70;;;;;;;;;;5094897;28;20195;-36
2023/04/24 07:41:24;;;;;;;2.15;1.95;;;;;;;;;;5094403;28;20206;-37
2023/04/24 07:43:53;;;;;;;2.50;2.00;;;;;;;;;;5094846;28;20199;-36
2023/04/24 07:46:20;;;;;;;2.88;2.00;;;;;;;;;;5093979;28;20199;-36
2023/04/24 07:48:48;;;;;;;5.60;2.80;;;;;;;;;;5094637;28;20214;-37
2023/04/24 07:51:34;;;;;;;2.58;1.92;;;;;;;;;;5094565;28;20218;-36
2023/04/24 07:54:01;;;;;;;3.45;1.92;;;;;;;;;;5058831;28;20211;-36
2023/04/24 07:56:30;;;;;;;2.75;1.75;;;;;;;;;;5094506;28;20202;-37
2023/04/24 07:58:58;;;;;;;3.13;2.10;;;;;;;;;;5094490;28;20207;-36
2023/04/24 08:01:25;;;;;;;3.58;2.00;;;;;;;;;;5094433;28;20659;-36
2023/04/24 08:03:52;;;;;;;3.75;2.30;;;;;;;;;;5094039;28;20685;-36
2023/04/24 08:06:20;;;;;;;3.28;2.20;;;;;;;;;;5093995;28;20207;-37
2023/04/24 08:08:47;;;;;;;2.15;1.80;;;;;;;;;;5094021;28;20199;-37
2023/04/24 08:11:15;;;;;;;2.72;1.70;;;;;;;;;;5059873;28;20226;-37
2023/04/24 08:13:42;;;;;;;2.53;2.17;;;;;;;;;;5093949;28;20206;-36
2023/04/24 08:16:09;;;;;;;4.03;2.10;;;;;;;;;;5094073;28;20198;-36
2023/04/24 08:18:36;;;;;;;2.80;1.95;;;;;;;;;;5094166;28;20214;-36
2023/04/24 08:21:03;;;;;;;3.38;2.00;;;;;;;;;;5093627;28;20238;-36
2023/04/24 08:23:30;;;;;;;2.10;1.63;;;;;;;;;;5093713;28;20248;-36
2023/04/24 08:25:58;;;;;;;3.00;2.33;;;;;;;;;;5093704;28;20206;-37
2023/04/24 08:28:25;;;;;;;2.50;1.90;;;;;;;;;;5093998;28;20252;-36
2023/04/24 08:30:54;;;;;;;2.72;2.00;;;;;;;;;;5093506;28;20206;-36
2023/04/24 08:33:23;;;;;;;2.70;1.98;;;;;;;;;;5093955;28;20289;-37
2023/04/24 08:35:50;;;;;;;3.10;1.90;;;;;;;;;;5093875;28;20207;-37
2023/04/24 08:38:17;;;;;;;2.60;1.95;;;;;;;;;;5093865;28;20268;-36
2023/04/24 08:40:45;;;;;;;3.00;1.85;;;;;;;;;;5075538;28;20210;-36
2023/04/24 08:43:13;;;;;;;3.13;1.77;;;;;;;;;;5093509;28;20203;-36
2023/04/24 08:45:41;;;;;;;2.75;1.83;;;;;;;;;;5094015;28;20213;-37
2023/04/24 08:48:09;;;;;;;3.75;1.80;;;;;;;;;;5093746;28;20206;-37
2023/04/24 08:50:53;;;;;;;2.63;1.40;;;;;;;;;;5077972;28;20209;-36
2023/04/24 08:53:20;;;;;;;3.20;1.90;;;;;;;;;;5076047;28;20265;-36
2023/04/24 08:55:48;;;;;;;3.10;1.80;;;;;;;;;;5093757;28;20233;-36
2023/04/24 08:58:19;;;;;;;2.53;2.03;;;;;;;;;;5095912;28;20619;-36
2023/04/24 09:00:47;;;;;;;2.97;1.50;;;;;;;;;;5098026;28;20190;-37
2023/04/24 09:03:15;;;;;;;3.05;1.70;;;;;;;;;;5062919;28;20214;-36
2023/04/24 09:05:46;;;;;;;4.15;1.88;;;;;;;;;;5097664;28;20208;-37
2023/04/24 09:08:14;;;;;;;4.38;2.00;;;;;;;;;;5098171;28;20182;-37
2023/04/24 09:10:42;;;;;;;2.53;1.88;;;;;;;;;;5097356;28;20209;-36
2023/04/24 09:13:09;;;;;;;2.55;1.65;;;;;;;;;;5097493;28;20280;-36
2023/04/24 09:15:38;;;;;;;3.22;1.88;;;;;;;;;;5097503;28;20203;-36
2023/04/24 09:18:05;;;;;;;3.25;1.83;;;;;;;;;;5097268;28;20298;-37
2023/04/24 09:20:33;;;;;;;2.53;1.88;;;;;;;;;;5097169;28;20202;-36
2023/04/24 09:23:00;;;;;;;4.20;1.95;;;;;;;;;;5097483;28;20256;-36
2023/04/24 09:25:35;;;;;;;5.63;2.13;;;;;;;;;;5097181;28;20199;-37
2023/04/24 09:28:03;;;;;;;2.75;1.85;;;;;;;;;;5097132;28;20217;-36
2023/04/24 09:30:31;;;;;;;2.72;1.85;;;;;;;;;;5097269;28;20199;-36
2023/04/24 09:33:14;;;;;;;2.45;1.90;;;;;;;;;;5097143;28;20227;-37
2023/04/24 09:35:52;;;;;;;2.45;1.70;;;;;;;;;;5096994;28;20662;-36
2023/04/24 09:38:33;;;;;;;2.78;2.10;;;;;;;;;;5078736;28;20225;-37
2023/04/24 09:41:03;;;;;;;4.18;2.33;;;;;;;;;;5096942;28;20175;-36
2023/04/24 09:43:31;;;;;;;2.75;1.77;;;;;;;;;;5097027;28;20195;-36
2023/04/24 09:46:00;;;;;;;3.30;1.90;;;;;;;;;;5096938;28;20195;-36
2023/04/24 09:48:35;;;;;;;3.47;1.90;;;;;;;;;;5062497;28;20203;-36
2023/04/24 09:51:06;;;;;;;3.92;2.00;;;;;;;;;;5096616;28;20602;-37
2023/04/24 09:53:33;;;;;;;1.92;1.70;;;;;;;;;;5078765;28;20175;-37
2023/04/24 09:56:12;;;;;;;2.75;1.92;;;;;;;;;;5078546;28;20247;-37
2023/04/24 09:58:39;;;;;;;2.72;2.00;;;;;;;;;;5096525;28;20212;-37
2023/04/24 10:01:07;;;;;;;3.63;1.92;;;;;;;;;;5096409;28;20218;-36
2023/04/24 10:03:34;;;;;;;3.05;1.75;;;;;;;;;;5096621;28;20222;-36
2023/04/24 10:06:08;;;;;;;2.78;1.83;;;;;;;;;;5096585;28;20202;-37
2023/04/24 10:08:37;;;;;;;2.00;1.48;;;;;;;;;;5096099;28;20600;-36
2023/04/24 10:11:05;;;;;;;3.35;1.95;;;;;;;;;;5096410;28;20280;-37
2023/04/24 10:13:32;;;;;;;4.72;2.00;;;;;;;;;;5096363;28;20206;-36
2023/04/24 10:16:00;;;;;;;2.83;2.15;;;;;;;;;;5078579;28;20255;-37
2023/04/24 10:18:28;;;;;;;3.15;1.98;;;;;;;;;;5078583;28;20256;-37
2023/04/24 10:20:56;;;;;;;3.97;2.10;;;;;;;;;;5078165;28;20227;-38
2023/04/24 10:23:25;;;;;;;4.13;1.70;;;;;;;;;;5078500;28;20218;-37
2023/04/24 10:25:52;;;;;;;2.83;1.90;;;;;;;;;;5096008;28;20564;-36
2023/04/24 10:28:20;;;;;;;2.85;1.88;;;;;;;;;;5095851;28;20233;-37
2023/04/24 10:30:48;;;;;;;1.92;1.70;;;;;;;;;;5096124;28;20658;-37
2023/04/24 10:33:15;;;;;;;2.92;2.17;;;;;;;;;;5095851;28;20667;-36
2023/04/24 10:35:47;;;;;;;2.97;1.67;;;;;;;;;;5078279;28;20195;-37
2023/04/24 10:38:18;;;;;;;3.75;2.10;;;;;;;;;;5078114;28;20640;-38
2023/04/24 10:40:45;;;;;;;4.40;2.00;;;;;;;;;;5078326;28;20187;-37
2023/04/24 10:43:17;;;;;;;5.82;2.13;;;;;;;;;;5095536;28;20250;-37
2023/04/24 10:46:04;;;;;;;3.03;1.98;;;;;;;;;;5078188;28;20175;-37
2023/04/24 10:48:32;;;;;;;2.38;1.63;;;;;;;;;;5095914;28;20213;-36
2023/04/24 10:50:59;;;;;;;2.72;2.10;;;;;;;;;;5095812;28;20199;-37
2023/04/24 10:53:30;;;;;;;2.83;1.95;;;;;;;;;;5095617;28;20225;-37
2023/04/24 10:56:07;;;;;;;4.25;2.05;;;;;;;;;;5095347;28;20199;-37
2023/04/24 10:58:44;;;;;;;3.35;1.90;;;;;;;;;;5077669;28;20243;-37
2023/04/24 11:01:28;;;;;;;3.47;1.80;;;;;;;;;;5095343;28;20191;-37
2023/04/24 11:03:58;;;;;;;3.35;2.15;;;;;;;;;;5060743;28;20655;-36
2023/04/24 11:06:36;;;;;;;2.40;1.83;;;;;;;;;;5095309;28;20210;-36
2023/04/24 11:09:06;;;;;;;2.10;1.63;;;;;;;;;;5095166;28;20198;-36
2023/04/24 11:11:34;;;;;;;1.60;1.48;;;;;;;;;;5077358;28;20213;-36
2023/04/24 11:14:03;;;;;;;2.78;1.88;;;;;;;;;;5077581;28;20552;-37
2023/04/24 11:16:33;;;;;;;2.53;1.73;;;;;;;;;;5095129;28;20210;-37
2023/04/24 11:19:01;;;;;;;2.05;1.65;;;;;;;;;;5095236;28;20183;-37
2023/04/24 11:21:57;;;;;;;3.05;2.03;;;;;;;;;;5094151;28;20248;-37
2023/04/24 11:24:31;;;;;;;2.20;1.73;;;;;;;;;;5094822;28;20206;-36
2023/04/24 11:27:05;;;;;;;4.60;1.88;;;;;;;;;;5077289;28;20191;-37
2023/04/24 11:29:57;;;;;;;2.42;1.73;;;;;;;;;;5094841;28;20183;-37
2023/04/24 11:32:37;;;;;;;2.53;1.70;;;;;;;;;;5094672;28;20218;-37
2023/04/24 11:35:20;;;;;;;2.88;1.88;;;;;;;;;;5094945;28;20187;-37
2023/04/24 11:37:49;;;;;;;2.35;1.90;;;;;;;;;;5094942;28;20187;-37
2023/04/24 11:40:37;;;;;;;2.55;1.90;;;;;;;;;;5094898;28;20274;-36
2023/04/24 11:43:06;;;;;;;5.45;2.08;;;;;;;;;;5072231;28;20239;-37
2023/04/24 11:45:34;;;;;;;3.20;2.10;;;;;;;;;;5069871;28;20222;-37
2023/04/24 11:48:03;;;;;;;3.45;2.10;;;;;;;;;;5061901;28;20216;-37
2023/04/24 11:50:30;;;;;;;3.05;2.03;;;;;;;;;;5061400;28;20577;-37
2023/04/24 11:53:00;;;;;;;2.22;1.40;;;;;;;;;;5051662;28;20223;-36
2023/04/24 11:55:28;;;;;;;2.58;1.77;;;;;;;;;;5064391;28;20294;-36
2023/04/24 11:57:58;;;;;;;2.72;1.75;;;;;;;;;;5060463;28;20221;-37
2023/04/24 12:00:26;;;;;;;2.05;1.63;;;;;;;;;;5062138;28;20215;-41
2023/04/24 12:03:05;;;;;;;2.58;1.75;;;;;;;;;;5062775;28;20219;-35
2023/04/24 12:05:34;;;;;;;2.63;1.77;;;;;;;;;;5063178;28;20238;-35
2023/04/24 12:08:02;;;;;;;2.65;1.80;;;;;;;;;;5061573;28;20220;-36
2023/04/24 12:10:30;;;;;;;3.80;2.05;;;;;;;;;;5063672;28;20662;-36
2023/04/24 12:12:59;;;;;;;2.90;2.00;;;;;;;;;;5060033;28;20243;-35
2023/04/24 12:15:27;;;;;;;4.63;1.83;;;;;;;;;;5043566;28;20537;-37
2023/04/24 12:17:55;;;;;;;3.05;1.88;;;;;;;;;;5029151;28;20216;-36
2023/04/24 12:20:31;;;;;;;2.63;1.88;;;;;;;;;;5061748;28;20305;-35
2023/04/24 12:23:00;;;;;;;3.40;1.83;;;;;;;;;;5078853;28;20226;-38
2023/04/24 12:25:29;;;;;;;2.17;1.75;;;;;;;;;;5081009;28;20698;-37
2023/04/24 12:28:05;;;;;;;3.90;1.60;;;;;;;;;;5077906;28;20231;-35
2023/04/24 12:30:36;;;;;;;2.67;1.80;;;;;;;;;;5081821;28;20313;-35
2023/04/24 12:33:03;;;;;;;1.92;1.70;;;;;;;;;;5073813;28;20613;-35
2023/04/24 12:35:33;;;;;;;2.28;1.63;;;;;;;;;;5082775;28;20237;-36
2023/04/24 12:38:12;;;;;;;2.08;1.60;;;;;;;;;;5081441;28;20927;-36
2023/04/24 12:40:43;;;;;;;2.40;1.70;;;;;;;;;;5081332;28;20722;-38
2023/04/24 12:43:16;;;;;;;3.10;1.77;;;;;;;;;;5074556;28;20581;-36
2023/04/24 12:45:44;;;;;;;1.90;1.60;;;;;;;;;;5071828;28;20652;-37
2023/04/24 12:48:13;;;;;;;2.17;1.60;;;;;;;;;;5083546;28;20214;-35
2023/04/24 12:50:41;;;;;;;2.83;1.67;;;;;;;;;;5061039;28;20230;-37
2023/04/24 12:53:11;;;;;;;2.20;1.70;;;;;;;;;;5080949;28;20256;-36
2023/04/24 12:55:38;;;;;;;3.42;1.70;;;;;;;;;;5082627;28;20623;-37
2023/04/24 12:58:06;;;;;;;2.65;1.70;;;;;;;;;;5081982;28;20255;-37
2023/04/24 13:00:33;;;;;;;2.10;1.50;;;;;;;;;;5080313;28;20270;-36
2023/04/24 13:03:01;;;;;;;1.98;1.67;;;;;;;;;;5080921;28;20214;-37
2023/04/24 13:05:28;;;;;;;2.80;1.50;;;;;;;;;;5063574;28;20215;-36
2023/04/24 13:07:57;;;;;;;2.22;1.73;;;;;;;;;;5082424;28;20218;-37
2023/04/24 13:10:24;;;;;;;2.42;1.70;;;;;;;;;;5081942;28;20230;-35
2023/04/24 13:12:51;;;;;;;2.72;1.75;;;;;;;;;;5077381;28;20230;-36
2023/04/24 13:15:18;;;;;;;3.20;1.80;;;;;;;;;;5064340;28;20222;-38
2023/04/24 13:17:45;;;;;;;2.15;1.60;;;;;;;;;;5087694;28;20249;-35
2023/04/24 13:20:13;;;;;;;2.83;1.70;;;;;;;;;;5083019;28;20211;-36
2023/04/24 13:22:40;;;;;;;1.98;1.52;;;;;;;;;;5079450;28;20235;-37
2023/04/24 13:25:08;;;;;;;2.58;1.60;;;;;;;;;;5081103;28;20260;-36
2023/04/24 13:27:38;;;;;;;1.65;1.48;;;;;;;;;;5080271;28;20291;-38
2023/04/24 13:30:06;;;;;;;2.45;1.60;;;;;;;;;;5078122;28;20219;-36
2023/04/24 13:32:35;;;;;;;3.33;1.70;;;;;;;;;;5080711;28;20219;-38
2023/04/24 13:35:02;;;;;;;1.88;1.42;;;;;;;;;;5073717;28;20221;-36
2023/04/24 13:37:29;;;;;;;2.42;1.60;;;;;;;;;;5059667;28;20270;-37
2023/04/24 13:39:56;;;;;;;1.98;1.42;;;;;;;;;;5051780;28;20227;-36
2023/04/24 13:42:24;;;;;;;3.03;1.33;;;;;;;;;;5051991;28;20232;-37
2023/04/24 13:44:52;;;;;;;1.92;1.60;;;;;;;;;;5055037;28;20586;-37
2023/04/24 13:47:19;;;;;;;2.72;1.33;;;;;;;;;;5066818;28;20215;-38
2023/04/24 13:49:47;;;;;;;1.48;1.30;;;;;;;;;;5084112;28;20682;-37
2023/04/24 13:52:15;;;;;;;2.08;1.70;;;;;;;;;;5086671;28;20216;-37
2023/04/24 13:54:42;;;;;;;2.17;1.33;;;;;;;;;;5083517;28;20233;-38
2023/04/24 13:57:09;;;;;;;2.30;1.52;;;;;;;;;;5069537;28;20220;-37
2023/04/24 13:59:37;;;;;;;3.00;1.55;;;;;;;;;;5055482;28;20247;-37
2023/04/24 14:02:04;;;;;;;1.70;1.40;;;;;;;;;;5065606;28;20219;-37
2023/04/24 14:04:31;;;;;;;2.05;1.48;;;;;;;;;;5075653;28;20219;-38
2023/04/24 14:06:58;;;;;;;2.63;1.48;;;;;;;;;;5057833;28;20536;-37
2023/04/24 14:09:25;;;;;;;1.92;1.52;;;;;;;;;;5075348;28;20730;-38
2023/04/24 14:11:53;;;;;;;1.40;1.17;;;;;;;;;;5072801;28;20215;-37
2023/04/24 14:14:20;;;;;;;2.25;1.73;;;;;;;;;;5064315;28;20253;-38
2023/04/24 14:16:47;;;;;;;2.08;1.50;;;;;;;;;;5057060;28;20239;-38
2023/04/24 14:19:14;;;;;;;2.47;1.63;;;;;;;;;;5058195;28;20235;-38
2023/04/24 14:21:41;;;;;;;2.00;1.65;;;;;;;;;;5054691;28;20244;-38
2023/04/24 14:24:09;;;;;;;2.13;1.50;;;;;;;;;;5055144;28;20701;-38
2023/04/24 14:26:36;;;;;;;2.58;1.63;;;;;;;;;;5061602;28;20707;-38
2023/04/24 14:29:03;;;;;;;2.50;1.70;;;;;;;;;;5074269;28;20227;-37
2023/04/24 14:31:41;;;;;;;1.77;1.48;;;;;;;;;;5066717;28;20220;-38
2023/04/24 14:34:09;;;;;;;4.00;1.60;;;;;;;;;;5074719;28;20223;-37
2023/04/24 14:36:36;;;;;;;2.35;1.50;;;;;;;;;;5056525;28;20223;-39
2023/04/24 14:39:06;;;;;;;1.58;1.35;;;;;;;;;;5054958;28;20220;-37
2023/04/24 14:41:35;;;;;;;2.47;1.70;;;;;;;;;;5054779;28;20298;-38
2023/04/24 14:44:03;;;;;;;3.22;1.33;;;;;;;;;;5067070;28;20230;-37
2023/04/24 14:46:31;;;;;;;1.48;1.30;;;;;;;;;;5074981;28;20224;-37
2023/04/24 14:48:58;;;;;;;2.25;1.30;;;;;;;;;;5075264;28;20231;-37
2023/04/24 14:51:25;;;;;;;1.67;1.40;;;;;;;;;;5075504;28;20196;-37
2023/04/24 14:53:52;;;;;;;1.80;1.30;;;;;;;;;;5071786;28;20219;-37
2023/04/24 14:56:20;;;;;;;1.90;1.58;;;;;;;;;;5074253;28;20207;-37